createdAt,value
2022-10-15T00:01:38.937Z,98188.53
2022-10-15T00:04:05.570Z,98187.88
2022-10-15T00:06:32.500Z,98180.03
2022-10-15T00:08:59.170Z,98183.06
2022-10-15T00:11:28.577Z,98182.22
2022-10-15T00:13:56.339Z,98180.88
2022-10-15T00:16:25.990Z,98179.03
2022-10-15T00:18:55.522Z,98172.41
2022-10-15T00:21:22.144Z,98181.88
2022-10-15T00:23:49.460Z,98176.22
2022-10-15T00:26:18.814Z,98175.03
2022-10-15T00:28:46.283Z,98176.03
2022-10-15T00:31:16.038Z,98176.84
2022-10-15T00:33:43.958Z,98174.38
2022-10-15T00:36:16.273Z,98176.84
2022-10-15T00:38:43.520Z,98168.38
2022-10-15T00:41:16.002Z,98179.19
2022-10-15T00:43:54.729Z,98178.53
2022-10-15T00:46:27.345Z,98174.69
2022-10-15T00:51:35.545Z,98174.19
2022-10-15T00:54:02.451Z,98174.03
2022-10-15T00:56:32.748Z,98168.91
2022-10-15T00:59:00.361Z,98165.88
2022-10-15T01:01:27.199Z,98158.56
2022-10-15T01:03:55.738Z,98163.06
2022-10-15T01:06:23.454Z,98163.06
2022-10-15T01:08:50.692Z,98161.06
2022-10-15T01:11:39.666Z,98168.53
2022-10-15T01:14:33.930Z,98165.56
2022-10-15T01:17:25.940Z,98161.06
2022-10-15T01:20:26.146Z,98156.72
2022-10-15T01:23:26.705Z,98160.91
2022-10-15T01:26:22.210Z,98153.38
2022-10-15T01:29:16.125Z,98146.22
2022-10-15T01:31:45.106Z,98141.91
2022-10-15T01:34:24.346Z,98154.22
2022-10-15T01:37:18.040Z,98144.72
2022-10-15T01:39:56.182Z,98141.56
2022-10-15T01:42:25.642Z,98139.91
2022-10-15T01:44:54.521Z,98139.44
2022-10-15T01:47:27.952Z,98142.25
2022-10-15T01:49:55.735Z,98127.63
2022-10-15T01:52:27.554Z,98123.44
2022-10-15T01:54:55.318Z,98121.63
2022-10-15T01:57:25.961Z,98118.78
2022-10-15T01:59:54.274Z,98124.97
2022-10-15T02:02:21.137Z,98121.25
2022-10-15T02:04:47.924Z,98115.94
2022-10-15T02:07:49.889Z,98101.63
2022-10-15T02:10:48.359Z,98094.63
2022-10-15T02:13:45.741Z,98092.16
2022-10-15T02:16:27.463Z,98102.97
2022-10-15T02:19:18.774Z,98098.63
2022-10-15T02:21:52.651Z,98094.97
2022-10-15T02:24:25.671Z,98098.63
2022-10-15T02:26:56.026Z,98093.31
2022-10-15T02:29:25.570Z,98097.66
2022-10-15T02:31:53.674Z,98101.97
2022-10-15T02:34:22.799Z,98101.97
2022-10-15T02:36:50.129Z,98094.16
2022-10-15T02:39:22.365Z,98090.13
2022-10-15T02:41:49.251Z,98097.28
2022-10-15T02:44:15.910Z,98094.28
2022-10-15T02:46:42.882Z,98086.31
2022-10-15T02:49:09.494Z,98090.63
2022-10-15T02:51:36.362Z,98086.81
2022-10-15T02:54:04.814Z,98081.50
2022-10-15T02:56:31.672Z,98081.31
2022-10-15T02:58:58.409Z,98090.13
2022-10-15T03:01:25.049Z,98092.78
2022-10-15T03:03:51.755Z,98085.81
2022-10-15T03:06:18.358Z,98092.63
2022-10-15T03:08:44.976Z,98093.00
2022-10-15T03:11:11.936Z,98097.28
2022-10-15T03:13:39.485Z,98091.97
2022-10-15T03:16:07.320Z,98090.31
2022-10-15T03:18:36.828Z,98090.31
2022-10-15T03:21:06.532Z,98082.34
2022-10-15T03:26:04.858Z,98083.16
2022-10-15T03:28:31.556Z,98080.66
2022-10-15T03:30:58.238Z,98078.84
2022-10-15T03:33:25.297Z,98079.00
2022-10-15T03:35:53.304Z,98091.16
2022-10-15T03:38:19.890Z,98089.50
2022-10-15T03:40:46.944Z,98088.50
2022-10-15T03:43:13.661Z,98082.34
2022-10-15T03:45:40.640Z,98081.50
2022-10-15T03:48:07.417Z,98081.50
2022-10-15T03:50:34.810Z,98085.31
2022-10-15T03:53:06.066Z,98079.16
2022-10-15T03:55:33.445Z,98080.00
2022-10-15T03:58:00.172Z,98085.69
2022-10-15T04:00:29.032Z,98085.47
2022-10-15T04:02:56.097Z,98088.97
2022-10-15T04:05:22.676Z,98083.84
2022-10-15T04:07:49.305Z,98076.00
2022-10-15T04:10:15.861Z,98078.00
2022-10-15T04:12:42.598Z,98082.03
2022-10-15T04:15:09.618Z,98087.34
2022-10-15T04:17:36.245Z,98080.34
2022-10-15T04:20:02.932Z,98076.69
2022-10-15T04:22:29.526Z,98079.34
2022-10-15T04:24:56.103Z,98086.84
2022-10-15T04:27:22.703Z,98088.84
2022-10-15T04:29:49.287Z,98091.00
2022-10-15T04:32:16.850Z,98103.50
2022-10-15T04:34:43.742Z,98100.00
2022-10-15T04:37:10.353Z,98101.19
2022-10-15T04:39:36.929Z,98104.69
2022-10-15T04:42:03.797Z,98105.50
2022-10-15T04:44:30.393Z,98101.66
2022-10-15T04:46:57.237Z,98105.00
2022-10-15T04:49:24.024Z,98101.50
2022-10-15T04:51:50.635Z,98104.00
2022-10-15T04:54:17.582Z,98101.66
2022-10-15T04:56:44.311Z,98105.16
2022-10-15T04:59:11.093Z,98107.97
2022-10-15T05:01:37.769Z,98105.69
2022-10-15T05:04:04.529Z,98104.84
2022-10-15T05:06:33.242Z,98105.00
2022-10-15T05:08:59.905Z,98105.47
2022-10-15T05:11:27.367Z,98105.31
2022-10-15T05:13:57.968Z,98097.50
2022-10-15T05:16:27.156Z,98096.66
2022-10-15T05:18:58.436Z,98098.69
2022-10-15T05:21:25.697Z,98090.69
2022-10-15T05:23:52.380Z,98091.34
2022-10-15T05:26:22.236Z,98092.16
2022-10-15T05:28:49.794Z,98084.00
2022-10-15T05:31:21.637Z,98083.69
2022-10-15T05:33:49.747Z,98095.50
2022-10-15T05:36:19.205Z,98097.69
2022-10-15T05:38:46.299Z,98103.84
2022-10-15T05:41:13.094Z,98110.31
2022-10-15T05:43:41.363Z,98119.97
2022-10-15T05:46:08.797Z,98121.81
2022-10-15T05:48:35.411Z,98119.81
2022-10-15T05:51:03.872Z,98135.63
2022-10-15T05:53:30.658Z,98142.44
2022-10-15T05:56:01.109Z,98146.63
2022-10-15T05:58:33.292Z,98143.97
2022-10-15T06:01:04.217Z,98147.09
2022-10-15T06:03:31.548Z,98137.97
2022-10-15T06:05:58.166Z,98138.78
2022-10-15T06:10:56.740Z,98154.59
2022-10-15T06:13:23.601Z,98157.91
2022-10-15T06:15:50.273Z,98153.91
2022-10-15T06:18:16.877Z,98146.59
2022-10-15T06:20:44.018Z,98136.44
2022-10-15T06:23:11.957Z,98136.94
2022-10-15T06:25:39.387Z,98152.91
2022-10-15T06:28:06.916Z,98156.25
2022-10-15T06:30:33.796Z,98146.22
2022-10-15T06:33:00.593Z,98145.75
2022-10-15T06:35:30.447Z,98141.25
2022-10-15T06:38:03.086Z,98140.22
2022-10-15T06:40:30.861Z,98144.56
2022-10-15T06:43:11.425Z,98151.72
2022-10-15T06:45:40.263Z,98162.22
2022-10-15T06:48:07.721Z,98156.56
2022-10-15T06:50:35.970Z,98152.03
2022-10-15T06:53:02.621Z,98158.88
2022-10-15T06:55:29.214Z,98160.22
2022-10-15T06:57:57.062Z,98171.72
2022-10-15T07:00:24.907Z,98172.19
2022-10-15T07:02:51.850Z,98174.19
2022-10-15T07:05:19.632Z,98185.19
2022-10-15T07:07:56.686Z,98187.03
2022-10-15T07:10:24.757Z,98196.84
2022-10-15T07:12:51.349Z,98200.16
2022-10-15T07:15:19.243Z,98214.16
2022-10-15T07:17:50.145Z,98214.16
2022-10-15T07:20:21.602Z,98207.84
2022-10-15T07:22:51.056Z,98212.66
2022-10-15T07:25:17.906Z,98212.50
2022-10-15T07:27:44.843Z,98216.47
2022-10-15T07:30:11.705Z,98222.81
2022-10-15T07:32:38.475Z,98228.00
2022-10-15T07:35:05.379Z,98229.31
2022-10-15T07:37:32.038Z,98232.81
2022-10-15T07:39:58.633Z,98230.50
2022-10-15T07:42:25.590Z,98227.81
2022-10-15T07:44:52.152Z,98225.81
2022-10-15T07:47:18.931Z,98238.16
2022-10-15T07:49:45.605Z,98236.97
2022-10-15T07:52:12.422Z,98235.66
2022-10-15T07:54:39.002Z,98238.78
2022-10-15T07:57:07.191Z,98245.47
2022-10-15T07:59:34.733Z,98249.47
2022-10-15T08:02:01.553Z,98248.81
2022-10-15T08:04:28.446Z,98245.47
2022-10-15T08:06:55.688Z,98241.28
2022-10-15T08:09:22.636Z,98237.78
2022-10-15T08:11:49.198Z,98240.59
2022-10-15T08:14:15.942Z,98243.44
2022-10-15T08:16:42.540Z,98248.06
2022-10-15T08:19:09.076Z,98232.56
2022-10-15T08:21:35.659Z,98227.06
2022-10-15T08:24:02.258Z,98234.03
2022-10-15T08:26:28.900Z,98243.84
2022-10-15T08:28:55.603Z,98249.19
2022-10-15T08:31:22.281Z,98262.03
2022-10-15T08:33:48.835Z,98268.06
2022-10-15T08:36:15.445Z,98272.25
2022-10-15T08:38:41.976Z,98278.53
2022-10-15T08:41:49.130Z,98287.72
2022-10-15T08:44:32.256Z,98284.06
2022-10-15T08:47:01.930Z,98277.75
2022-10-15T08:49:55.712Z,98283.72
2022-10-15T08:52:29.290Z,98284.06
2022-10-15T08:54:58.573Z,98283.72
2022-10-15T08:57:47.166Z,98285.22
2022-10-15T09:00:13.650Z,98283.72
2022-10-15T09:02:52.761Z,98279.38
2022-10-15T09:05:51.688Z,98289.06
2022-10-15T09:08:55.656Z,98291.88
2022-10-15T09:11:53.129Z,98301.41
2022-10-15T09:14:25.053Z,98303.22
2022-10-15T09:16:51.776Z,98305.06
2022-10-15T09:19:21.055Z,98297.34
2022-10-15T09:21:52.527Z,98302.34
2022-10-15T09:24:24.589Z,98297.81
2022-10-15T09:27:13.026Z,98297.94
2022-10-15T09:30:05.982Z,98300.59
2022-10-15T09:32:49.455Z,98288.19
2022-10-15T09:35:26.468Z,98290.16
2022-10-15T09:37:56.566Z,98298.44
2022-10-15T09:40:44.552Z,98295.13
2022-10-15T09:43:13.115Z,98292.88
2022-10-15T09:45:39.648Z,98297.03
2022-10-15T09:48:17.718Z,98300.50
2022-10-15T09:50:50.747Z,98307.72
2022-10-15T09:53:28.140Z,98304.66
2022-10-15T09:56:14.664Z,98299.78
2022-10-15T09:58:58.581Z,98303.00
2022-10-15T10:01:30.530Z,98305.63
2022-10-15T10:04:20.403Z,98304.78
2022-10-15T10:06:52.458Z,98304.25
2022-10-15T10:09:27.269Z,98305.88
2022-10-15T10:11:56.739Z,98310.59
2022-10-15T10:14:31.236Z,98311.72
2022-10-15T10:17:21.347Z,98305.69
2022-10-15T10:20:17.720Z,98309.47
2022-10-15T10:22:51.248Z,98313.25
2022-10-15T10:25:27.790Z,98315.41
2022-10-15T10:28:05.050Z,98318.84
2022-10-15T10:30:42.764Z,98313.38
2022-10-15T10:33:15.198Z,98313.44
2022-10-15T10:35:50.211Z,98306.41
2022-10-15T10:38:43.440Z,98315.38
2022-10-15T10:41:11.835Z,98311.75
2022-10-15T10:43:40.308Z,98312.88
2022-10-15T10:46:15.792Z,98306.56
2022-10-15T10:48:46.377Z,98314.25
2022-10-15T10:51:22.316Z,98308.28
2022-10-15T10:54:04.554Z,98309.50
2022-10-15T10:56:35.384Z,98304.81
2022-10-15T10:59:17.979Z,98304.97
2022-10-15T11:01:44.617Z,98309.84
2022-10-15T11:04:26.309Z,98306.16
2022-10-15T11:07:01.849Z,98302.81
2022-10-15T11:09:35.927Z,98297.91
2022-10-15T11:12:08.266Z,98296.50
2022-10-15T11:14:56.586Z,98287.38
2022-10-15T11:17:54.108Z,98287.47
2022-10-15T11:20:32.152Z,98291.88
2022-10-15T11:23:45.772Z,98285.59
2022-10-15T11:26:21.336Z,98289.66
2022-10-15T11:29:11.433Z,98289.78
2022-10-15T11:32:02.744Z,98287.69
2022-10-15T11:35:01.555Z,98294.50
2022-10-15T11:37:37.099Z,98277.16
2022-10-15T11:40:41.295Z,98267.13
2022-10-15T11:43:16.842Z,98267.53
2022-10-15T11:46:08.051Z,98263.53
2022-10-15T11:48:46.904Z,98255.69
2022-10-15T11:51:27.635Z,98261.56
2022-10-15T11:54:16.921Z,98267.78
2022-10-15T11:56:45.820Z,98263.75
2022-10-15T11:59:42.274Z,98260.34
2022-10-15T12:02:37.873Z,98257.09
2022-10-15T12:05:09.209Z,98250.03
2022-10-15T12:07:44.944Z,98246.94
2022-10-15T12:10:47.021Z,98260.97
2022-10-15T12:13:25.642Z,98250.41
2022-10-15T12:16:04.341Z,98247.50
2022-10-15T12:18:38.392Z,98245.03
2022-10-15T12:21:38.494Z,98248.88
2022-10-15T12:24:15.684Z,98254.03
2022-10-15T12:26:42.377Z,98259.34
2022-10-15T12:29:22.052Z,98262.00
2022-10-15T12:31:58.020Z,98261.31
2022-10-15T12:34:42.114Z,98258.56
2022-10-15T12:37:19.417Z,98257.72
2022-10-15T12:39:52.659Z,98254.13
2022-10-15T12:42:35.761Z,98258.56
2022-10-15T12:45:06.345Z,98265.13
2022-10-15T12:47:54.246Z,98256.53
2022-10-15T12:50:30.176Z,98262.03
2022-10-15T12:53:02.424Z,98250.94
2022-10-15T12:55:39.578Z,98240.16
2022-10-15T12:58:32.891Z,98250.53
2022-10-15T13:01:13.721Z,98244.91
2022-10-15T13:03:52.200Z,98251.97
2022-10-15T13:06:22.031Z,98251.38
2022-10-15T13:08:57.649Z,98247.78
2022-10-15T13:11:35.911Z,98246.50
2022-10-15T13:14:26.566Z,98251.03
2022-10-15T13:16:53.749Z,98252.56
2022-10-15T13:19:30.169Z,98258.75
2022-10-15T13:21:59.732Z,98245.69
2022-10-15T13:24:28.564Z,98247.59
2022-10-15T13:26:57.145Z,98240.25
2022-10-15T13:29:27.621Z,98239.19
2022-10-15T13:31:57.244Z,98238.44
2022-10-15T13:34:34.776Z,98248.69
2022-10-15T13:37:04.080Z,98245.44
2022-10-15T13:39:37.590Z,98244.16
2022-10-15T13:42:13.220Z,98242.44
2022-10-15T13:44:40.286Z,98240.56
2022-10-15T13:47:31.381Z,98246.44
2022-10-15T13:50:20.267Z,98238.97
2022-10-15T13:53:19.453Z,98234.25
2022-10-15T13:55:47.279Z,98236.75
2022-10-15T13:58:27.425Z,98235.97
2022-10-15T14:01:14.861Z,98235.44
2022-10-15T14:03:47.291Z,98240.63
2022-10-15T14:06:29.273Z,98231.75
2022-10-15T14:09:16.008Z,98226.78
2022-10-15T14:11:42.840Z,98238.34
2022-10-15T14:14:39.878Z,98241.97
2022-10-15T14:17:10.198Z,98233.81
2022-10-15T14:19:39.053Z,98241.09
2022-10-15T14:22:06.348Z,98248.66
2022-10-15T14:24:35.849Z,98255.97
2022-10-15T14:27:08.275Z,98250.63
2022-10-15T14:29:43.165Z,98252.78
2022-10-15T14:32:29.165Z,98253.72
2022-10-15T14:35:00.202Z,98250.13
2022-10-15T14:37:35.958Z,98244.81
2022-10-15T14:40:09.551Z,98253.44
2022-10-15T14:43:04.470Z,98255.03
2022-10-15T14:45:42.248Z,98245.59
2022-10-15T14:48:27.533Z,98243.09
2022-10-15T14:50:59.572Z,98244.50
2022-10-15T14:53:29.144Z,98239.78
2022-10-15T14:56:07.931Z,98231.00
2022-10-15T14:58:34.990Z,98227.41
2022-10-15T15:01:05.051Z,98234.44
2022-10-15T15:03:39.958Z,98236.47
2022-10-15T15:06:07.558Z,98241.41
2022-10-15T15:08:34.174Z,98236.56
2022-10-15T15:11:04.628Z,98236.81
2022-10-15T15:13:38.589Z,98226.09
2022-10-15T15:16:05.554Z,98233.03
2022-10-15T15:18:32.489Z,98225.06
2022-10-15T15:21:03.108Z,98225.69
2022-10-15T15:23:30.297Z,98227.09
2022-10-15T15:25:56.857Z,98227.47
2022-10-15T15:28:25.637Z,98226.06
2022-10-15T15:31:02.526Z,98232.84
2022-10-15T15:33:29.265Z,98231.59
2022-10-15T15:36:01.733Z,98225.88
2022-10-15T15:38:31.188Z,98218.78
2022-10-15T15:41:17.670Z,98226.19
2022-10-15T15:43:45.715Z,98230.69
2022-10-15T15:46:13.168Z,98226.19
2022-10-15T15:48:40.121Z,98235.31
2022-10-15T15:51:10.527Z,98232.63
2022-10-15T15:53:37.070Z,98241.31
2022-10-15T15:56:03.677Z,98236.97
2022-10-15T15:58:30.254Z,98247.00
2022-10-15T16:00:56.900Z,98240.00
2022-10-15T16:03:23.474Z,98248.41
2022-10-15T16:08:22.707Z,98246.66
2022-10-15T16:10:49.329Z,98247.19
2022-10-15T16:13:15.976Z,98242.31
2022-10-15T16:15:42.581Z,98242.78
2022-10-15T16:18:09.472Z,98237.97
2022-10-15T16:20:39.539Z,98250.00
2022-10-15T16:23:06.442Z,98250.94
2022-10-15T16:25:33.099Z,98251.50
2022-10-15T16:28:01.850Z,98251.69
2022-10-15T16:30:29.162Z,98264.41
2022-10-15T16:32:55.964Z,98258.41
2022-10-15T16:35:22.924Z,98264.41
2022-10-15T16:37:52.252Z,98275.59
2022-10-15T16:40:19.134Z,98266.13
2022-10-15T16:42:45.756Z,98268.19
2022-10-15T16:45:13.368Z,98273.34
2022-10-15T16:47:39.963Z,98275.91
2022-10-15T16:50:07.334Z,98282.59
2022-10-15T16:52:34.576Z,98278.25
2022-10-15T16:55:01.118Z,98278.97
2022-10-15T16:57:27.700Z,98288.38
2022-10-15T16:59:54.346Z,98292.09
2022-10-15T17:02:20.966Z,98299.06
2022-10-15T17:04:47.541Z,98294.84
2022-10-15T17:07:14.250Z,98312.56
2022-10-15T17:09:41.312Z,98307.94
2022-10-15T17:12:07.945Z,98311.16
2022-10-15T17:14:34.587Z,98303.31
2022-10-15T17:17:01.098Z,98310.34
2022-10-15T17:19:30.573Z,98315.75
2022-10-15T17:22:00.647Z,98322.97
2022-10-15T17:24:27.322Z,98329.16
2022-10-15T17:26:54.934Z,98331.16
2022-10-15T17:29:23.075Z,98337.72
2022-10-15T17:31:50.854Z,98335.22
2022-10-15T17:34:18.150Z,98332.81
2022-10-15T17:36:47.349Z,98345.19
2022-10-15T17:39:17.188Z,98345.25
2022-10-15T17:41:43.981Z,98343.91
2022-10-15T17:44:11.761Z,98339.56
2022-10-15T17:46:39.463Z,98347.75
2022-10-15T17:49:07.989Z,98353.28
2022-10-15T17:51:34.913Z,98347.28
2022-10-15T17:54:02.604Z,98347.66
2022-10-15T17:56:35.271Z,98347.19
2022-10-15T17:59:06.515Z,98361.38
2022-10-15T18:04:24.465Z,98365.44
2022-10-15T18:06:51.226Z,98367.25
2022-10-15T18:09:17.909Z,98359.34
2022-10-15T18:11:46.575Z,98359.19
2022-10-15T18:14:13.280Z,98363.31
2022-10-15T18:16:39.949Z,98358.06
2022-10-15T18:19:07.172Z,98350.88
2022-10-15T18:21:33.984Z,98358.78
2022-10-15T18:24:00.894Z,98354.59
2022-10-15T18:26:27.567Z,98362.81
2022-10-15T18:28:54.241Z,98361.16
2022-10-15T18:31:21.737Z,98355.44
2022-10-15T18:33:52.087Z,98357.66
2022-10-15T18:36:23.263Z,98354.50
2022-10-15T18:38:50.354Z,98354.03
2022-10-15T18:41:17.899Z,98362.94
2022-10-15T18:43:51.585Z,98364.94
2022-10-15T18:46:18.233Z,98372.13
2022-10-15T18:48:45.142Z,98377.31
2022-10-15T18:51:11.961Z,98385.31
2022-10-15T18:53:39.510Z,98390.00
2022-10-15T18:56:07.762Z,98393.34
2022-10-15T18:58:34.723Z,98395.03
2022-10-15T19:01:26.757Z,98391.03
2022-10-15T19:03:57.956Z,98396.03
2022-10-15T19:06:28.805Z,98403.38
2022-10-15T19:08:59.685Z,98402.75
2022-10-15T19:11:26.701Z,98402.91
2022-10-15T19:13:53.383Z,98397.03
2022-10-15T19:16:19.978Z,98402.38
2022-10-15T19:18:46.510Z,98397.69
2022-10-15T19:21:13.234Z,98386.81
2022-10-15T19:23:39.854Z,98396.84
2022-10-15T19:26:08.257Z,98400.69
2022-10-15T19:28:35.422Z,98402.38
2022-10-15T19:31:04.186Z,98410.06
2022-10-15T19:33:31.565Z,98416.28
2022-10-15T19:35:58.522Z,98423.97
2022-10-15T19:38:25.823Z,98422.09
2022-10-15T19:40:53.308Z,98419.25
2022-10-15T19:43:22.072Z,98418.41
2022-10-15T19:45:49.020Z,98422.09
2022-10-15T19:48:18.408Z,98417.13
2022-10-15T19:50:45.549Z,98432.50
2022-10-15T19:53:16.457Z,98439.50
2022-10-15T19:55:44.555Z,98444.84
2022-10-15T19:58:11.708Z,98439.34
2022-10-15T20:00:38.360Z,98438.97
2022-10-15T20:03:05.020Z,98436.50
2022-10-15T20:05:31.602Z,98432.63
2022-10-15T20:07:58.185Z,98424.97
2022-10-15T20:10:26.147Z,98435.81
2022-10-15T20:12:53.481Z,98433.63
2022-10-15T20:15:20.212Z,98436.84
2022-10-15T20:17:47.294Z,98444.00
2022-10-15T20:20:13.858Z,98443.00
2022-10-15T20:22:40.459Z,98447.91
2022-10-15T20:25:07.270Z,98446.84
2022-10-15T20:27:33.957Z,98457.91
2022-10-15T20:30:00.552Z,98451.75
2022-10-15T20:32:34.622Z,98453.25
2022-10-15T20:35:02.330Z,98453.56
2022-10-15T20:37:29.096Z,98451.44
2022-10-15T20:42:23.357Z,98454.59
2022-10-15T20:44:50.100Z,98460.28
2022-10-15T20:47:16.866Z,98463.78
2022-10-15T20:49:46.820Z,98462.28
2022-10-15T20:52:14.423Z,98474.81
2022-10-15T20:54:41.380Z,98476.69
2022-10-15T20:57:08.174Z,98482.66
2022-10-15T20:59:34.706Z,98490.69
2022-10-15T21:02:01.324Z,98495.38
2022-10-15T21:04:27.920Z,98492.72
2022-10-15T21:06:54.512Z,98505.88
2022-10-15T21:09:21.092Z,98515.75
2022-10-15T21:11:47.725Z,98530.13
2022-10-15T21:14:14.578Z,98529.63
2022-10-15T21:16:41.417Z,98531.47
2022-10-15T21:19:08.528Z,98531.28
2022-10-15T21:21:35.264Z,98525.13
2022-10-15T21:24:01.809Z,98523.13
2022-10-15T21:26:28.338Z,98519.94
2022-10-15T21:28:56.630Z,98526.78
2022-10-15T21:31:23.655Z,98528.09
2022-10-15T21:33:50.787Z,98529.78
2022-10-15T21:36:22.168Z,98520.75
2022-10-15T21:38:53.049Z,98527.78
2022-10-15T21:41:20.049Z,98536.13
2022-10-15T21:43:46.720Z,98533.81
2022-10-15T21:46:14.963Z,98544.19
2022-10-15T21:48:42.840Z,98540.00
2022-10-15T21:51:15.373Z,98544.88
2022-10-15T21:53:42.908Z,98546.88
2022-10-15T21:56:10.466Z,98553.72
2022-10-15T21:58:38.799Z,98549.53
2022-10-15T22:01:21.951Z,98542.88
2022-10-15T22:03:50.243Z,98547.56
2022-10-15T22:06:17.746Z,98531.03
2022-10-15T22:08:44.900Z,98538.91
2022-10-15T22:11:13.121Z,98546.56
2022-10-15T22:13:40.940Z,98552.94
2022-10-15T22:16:08.471Z,98563.59
2022-10-15T22:18:35.176Z,98569.13
2022-10-15T22:21:30.627Z,98570.94
2022-10-15T22:24:06.497Z,98576.59
2022-10-15T22:26:36.367Z,98576.28
2022-10-15T22:29:05.678Z,98574.28
2022-10-15T22:31:32.553Z,98571.25
2022-10-15T22:34:00.069Z,98579.94
2022-10-15T22:36:29.081Z,98572.63
2022-10-15T22:39:03.518Z,98582.47
2022-10-15T22:41:32.135Z,98586.97
2022-10-15T22:43:59.396Z,98580.94
2022-10-15T22:46:26.687Z,98589.31
2022-10-15T22:48:53.786Z,98579.63
2022-10-15T22:51:21.167Z,98581.81
2022-10-15T22:53:48.063Z,98585.63
2022-10-15T22:56:17.546Z,98591.97
2022-10-15T22:58:44.541Z,98593.31
2022-10-15T23:01:13.873Z,98588.31
2022-10-15T23:03:41.621Z,98583.78
2022-10-15T23:06:08.245Z,98578.59
2022-10-15T23:08:35.421Z,98586.94
2022-10-15T23:11:15.705Z,98591.28
2022-10-15T23:13:43.731Z,98578.59
2022-10-15T23:16:19.745Z,98587.97
2022-10-15T23:18:48.401Z,98598.94
2022-10-15T23:21:18.401Z,98598.94
2022-10-15T23:23:45.957Z,98597.28
2022-10-15T23:26:15.094Z,98604.63
2022-10-15T23:28:43.240Z,98601.28
2022-10-15T23:31:17.117Z,98604.09
2022-10-15T23:33:44.228Z,98595.25
2022-10-15T23:36:10.778Z,98598.75
2022-10-15T23:38:37.317Z,98594.59
2022-10-15T23:41:06.602Z,98599.94
2022-10-15T23:43:33.809Z,98592.09
2022-10-15T23:46:00.888Z,98581.56
2022-10-15T23:48:28.300Z,98574.34
2022-10-15T23:50:59.403Z,98569.84
2022-10-15T23:53:29.308Z,98566.53
2022-10-15T23:55:55.873Z,98569.50
2022-10-15T23:58:22.451Z,98569.81
